Time;durP1;ratioP1;P1;durP2;ratioP2;P2;SDS_P1;SDS_P2;PMS_P1;PMS_P2;Temp;Humidity;BMP_temperature;BMP_pressure;BME280_temperature;BME280_humidity;BME280_pressure;Samples;Min_cycle;Max_cycle;Signal;HPM_P1;HPM_P2
2021/01/17 00:39:00;;;;;;;13.73;10.50;;;3.90;66.30;;;;;;5117422;28;21112;-82
2021/01/17 02:48:30;;;;;;;18.87;14.27;;;4.10;66.00;;;;;;4963540;28;20553;-82
2021/01/17 02:50:56;;;;;;;21.43;15.37;;;4.10;65.90;;;;;;4991083;28;20467;-81
2021/01/17 03:13:38;;;;;;;20.40;13.30;;;4.10;65.50;;;;;;4985899;28;20486;-80
2021/01/17 03:16:08;;;;;;;17.47;13.43;;;4.00;65.30;;;;;;4980075;28;20469;-81
2021/01/17 03:18:34;;;;;;;18.70;13.07;;;4.00;65.30;;;;;;4976501;28;20534;-80
2021/01/17 03:21:01;;;;;;;19.27;13.50;;;4.10;65.50;;;;;;4982284;28;20553;-81
2021/01/17 03:23:39;;;;;;;18.23;12.53;;;4.10;65.70;;;;;;4992729;28;20482;-82
2021/01/17 03:26:28;;;;;;;21.53;14.93;;;4.10;65.50;;;;;;4975447;28;20526;-83
2021/01/17 03:32:55;;;;;;;17.27;14.00;;;4.10;65.30;;;;;;4983440;28;20457;-81
2021/01/17 04:23:11;;;;;;;20.47;12.30;;;4.20;64.40;;;;;;4802381;29;20502;-80
2021/01/17 04:25:37;;;;;;;16.80;12.43;;;4.20;64.60;;;;;;4835235;29;21018;-81
2021/01/17 04:28:14;;;;;;;20.00;13.00;;;4.20;64.50;;;;;;4964808;28;20513;-80
2021/01/17 04:30:41;;;;;;;19.77;14.30;;;4.20;64.80;;;;;;4970569;28;20809;-81
2021/01/17 04:33:08;;;;;;;20.20;14.00;;;4.20;64.70;;;;;;4973031;28;20472;-80
2021/01/17 04:35:34;;;;;;;19.57;13.33;;;4.20;64.60;;;;;;4971179;28;20993;-81
2021/01/17 04:38:01;;;;;;;22.27;14.30;;;4.20;64.40;;;;;;4967168;28;20488;-80
2021/01/17 04:40:30;;;;;;;20.70;12.00;;;4.20;64.50;;;;;;4971852;28;20527;-81
2021/01/17 04:43:09;;;;;;;17.67;13.73;;;4.20;64.60;;;;;;4972718;28;20477;-81
2021/01/17 04:45:40;;;;;;;20.20;14.67;;;4.20;64.50;;;;;;4972515;28;20840;-81
2021/01/17 04:48:14;;;;;;;20.37;14.47;;;4.30;64.60;;;;;;4972995;28;20468;-81
2021/01/17 04:50:46;;;;;;;23.87;14.93;;;4.30;64.80;;;;;;4988249;28;20466;-81
2021/01/17 04:53:16;;;;;;;23.63;13.03;;;4.30;64.80;;;;;;4978260;28;20566;-81
2021/01/17 04:55:49;;;;;;;20.13;14.43;;;4.30;64.80;;;;;;4985063;28;20454;-81
2021/01/17 04:58:18;;;;;;;19.47;15.00;;;4.20;64.70;;;;;;4988734;28;20486;-81
2021/01/17 05:00:58;;;;;;;17.87;13.90;;;4.20;65.00;;;;;;4989302;28;20830;-82
2021/01/17 05:03:39;;;;;;;21.13;15.43;;;4.20;65.00;;;;;;4978183;28;20902;-81
2021/01/17 05:06:26;;;;;;;26.67;16.10;;;4.20;65.30;;;;;;4991552;28;20548;-81
2021/01/17 05:09:01;;;;;;;20.43;13.83;;;4.10;65.40;;;;;;4967641;28;20466;-80
2021/01/17 05:12:10;;;;;;;24.80;15.13;;;4.10;66.00;;;;;;4982139;28;20461;-81
2021/01/17 05:14:55;;;;;;;16.80;12.40;;;4.10;66.20;;;;;;4985325;28;20494;-81
2021/01/17 05:17:31;;;;;;;20.80;13.77;;;4.10;65.80;;;;;;4991202;28;20493;-81
2021/01/17 05:23:38;;;;;;;18.87;13.40;;;4.20;65.50;;;;;;4862102;29;20452;-81
2021/01/17 05:26:11;;;;;;;22.90;15.60;;;4.20;65.70;;;;;;4981895;28;20466;-81
2021/01/17 05:28:46;;;;;;;22.90;14.43;;;4.20;65.70;;;;;;4977090;28;20467;-80
2021/01/17 05:31:13;;;;;;;19.50;13.50;;;4.30;65.60;;;;;;4981197;28;20471;-80
2021/01/17 05:40:37;;;;;;;18.17;13.37;;;4.30;64.60;;;;;;4988340;28;20578;-83
2021/01/17 06:12:32;;;;;;;16.97;12.90;;;4.20;66.00;;;;;;4939119;28;20456;-84
2021/01/17 06:19:55;;;;;;;;;;;;;;;;;;;;;
2021/01/17 06:23:35;;;;;;;;;;;;;;;;;;;;;
2021/01/17 06:29:36;;;;;;;20.33;14.80;;;4.40;65.60;;;;;;4910193;29;20458;-79
2021/01/17 06:32:45;;;;;;;24.97;15.90;;;4.40;66.00;;;;;;4914995;29;20458;-80
2021/01/17 06:38:37;;;;;;;19.60;15.07;;;4.40;66.60;;;;;;4914631;29;20449;-79
2021/01/17 06:41:54;;;;;;;21.47;15.10;;;4.40;66.70;;;;;;4984821;28;20518;-81
2021/01/17 06:54:39;;;;;;;25.10;15.27;;;4.40;66.90;;;;;;4891442;29;20502;-83
2021/01/17 06:57:07;;;;;;;26.97;16.27;;;4.40;66.80;;;;;;4910660;28;20983;-79
2021/01/17 06:59:35;;;;;;;23.70;16.70;;;4.50;66.90;;;;;;4993751;28;20455;-81
2021/01/17 07:02:39;;;;;;;20.77;15.07;;;4.50;66.70;;;;;;4980750;28;20478;-80
2021/01/17 10:09:15;;;;;;;19.47;14.90;;;5.60;69.80;;;;;;4958071;28;20405;-84
2021/01/17 12:17:04;;;;;;;13.47;10.60;;;6.20;69.80;;;;;;4963103;28;20535;-85
2021/01/17 15:49:40;;;;;;;12.43;11.13;;;6.10;71.10;;;;;;6214144;23;20454;-82
2021/01/17 15:52:12;;;;;;;12.70;10.97;;;6.10;71.10;;;;;;6214139;23;20428;-82
2021/01/17 15:54:43;;;;;;;10.50;9.43;;;6.20;71.10;;;;;;6214774;23;20477;-82
2021/01/17 15:57:14;;;;;;;12.07;10.00;;;6.20;71.10;;;;;;6214325;23;20483;-83
2021/01/17 15:59:44;;;;;;;14.10;10.60;;;6.20;71.00;;;;;;6214072;23;20418;-81
2021/01/17 16:02:17;;;;;;;11.87;9.73;;;6.20;70.90;;;;;;6212687;23;20452;-82
2021/01/17 16:04:57;;;;;;;14.37;11.10;;;6.20;71.00;;;;;;6213883;23;20416;-82
2021/01/17 16:07:44;;;;;;;14.40;11.43;;;6.20;71.00;;;;;;6213941;23;20419;-82
2021/01/17 16:10:31;;;;;;;12.77;10.83;;;6.20;71.00;;;;;;6199867;23;20439;-82
2021/01/17 16:13:02;;;;;;;12.87;11.40;;;6.20;71.10;;;;;;6213248;23;20447;-82
2021/01/17 16:15:50;;;;;;;16.17;12.47;;;6.20;71.20;;;;;;6212927;23;20420;-83
2021/01/17 16:18:19;;;;;;;14.13;12.13;;;6.20;71.20;;;;;;6210066;23;20504;-80
2021/01/17 16:20:50;;;;;;;17.30;13.77;;;6.20;71.10;;;;;;6210557;23;20472;-80
2021/01/17 16:23:22;;;;;;;19.33;12.63;;;6.30;71.20;;;;;;6209945;23;20423;-80
2021/01/17 16:25:49;;;;;;;15.50;12.60;;;6.30;71.10;;;;;;6210144;23;20455;-81
2021/01/17 16:28:21;;;;;;;12.93;11.60;;;6.30;71.10;;;;;;6203791;23;20424;-79
2021/01/17 16:30:54;;;;;;;16.73;13.57;;;6.30;70.90;;;;;;6204434;23;20808;-80
2021/01/17 16:33:21;;;;;;;15.70;12.20;;;6.30;70.80;;;;;;6209370;23;20423;-81
2021/01/17 16:35:56;;;;;;;14.77;11.77;;;6.30;70.80;;;;;;6210406;23;20428;-79
2021/01/17 16:38:23;;;;;;;18.43;13.87;;;6.20;70.90;;;;;;6209503;23;20462;-79
2021/01/17 16:40:51;;;;;;;14.90;12.70;;;6.30;71.10;;;;;;6210381;23;20427;-80
2021/01/17 16:43:22;;;;;;;15.47;12.87;;;6.30;71.30;;;;;;6210019;23;20427;-80
2021/01/17 16:45:52;;;;;;;15.83;13.57;;;6.30;71.10;;;;;;6210282;23;20985;-79
2021/01/17 16:48:19;;;;;;;15.33;12.90;;;6.30;71.10;;;;;;6227551;23;20522;-78
2021/01/17 16:50:46;;;;;;;15.10;12.23;;;6.30;71.10;;;;;;6240377;23;20425;-79
2021/01/17 16:53:15;;;;;;;16.50;11.90;;;6.30;71.10;;;;;;6243224;23;20397;-78
2021/01/17 16:55:42;;;;;;;14.93;11.80;;;6.30;71.20;;;;;;6244870;23;20406;-79
2021/01/17 16:58:09;;;;;;;15.03;12.63;;;6.30;71.30;;;;;;6239431;23;20401;-79
2021/01/17 17:00:40;;;;;;;16.63;11.90;;;6.30;71.20;;;;;;6240701;22;20490;-79
2021/01/17 17:03:07;;;;;;;13.03;11.63;;;6.30;71.10;;;;;;6239964;23;20479;-79
2021/01/17 17:05:34;;;;;;;15.80;13.17;;;6.30;71.10;;;;;;6240221;23;20905;-79
2021/01/17 17:08:00;;;;;;;14.80;11.37;;;6.30;71.10;;;;;;6241079;23;20420;-80
2021/01/17 17:10:28;;;;;;;14.67;11.73;;;6.30;71.10;;;;;;6242454;22;20412;-79
2021/01/17 17:13:00;;;;;;;11.87;10.50;;;6.30;71.10;;;;;;6241994;23;20459;-80
2021/01/17 17:15:27;;;;;;;12.70;10.30;;;6.30;71.10;;;;;;6242997;23;20431;-77
2021/01/17 17:17:53;;;;;;;14.43;11.03;;;6.30;71.30;;;;;;6242214;23;20415;-78
2021/01/17 17:20:24;;;;;;;18.23;13.17;;;6.30;71.40;;;;;;6242570;22;20971;-80
2021/01/17 17:22:54;;;;;;;14.63;13.13;;;6.30;71.30;;;;;;6242793;23;20811;-80
2021/01/17 17:25:27;;;;;;;14.17;10.83;;;6.30;71.30;;;;;;6240954;23;20450;-80
2021/01/17 17:27:56;;;;;;;15.03;12.33;;;6.30;71.30;;;;;;6242444;22;20940;-80
2021/01/17 17:30:27;;;;;;;16.40;13.70;;;6.30;71.30;;;;;;6242596;23;20818;-81
2021/01/17 17:32:54;;;;;;;20.77;15.40;;;6.40;71.40;;;;;;6242299;23;20415;-81
2021/01/17 17:35:21;;;;;;;16.37;13.20;;;6.40;71.30;;;;;;6243008;23;20431;-80
2021/01/17 17:37:53;;;;;;;18.33;13.93;;;6.40;71.90;;;;;;6242431;22;20427;-80
2021/01/17 17:40:53;;;;;;;16.40;14.27;;;6.40;71.20;;;;;;6241697;22;20428;-82
2021/01/17 17:43:57;;;;;;;16.83;14.83;;;6.40;71.30;;;;;;6177584;23;20869;-83
2021/01/17 17:46:28;;;;;;;15.43;12.93;;;6.40;71.20;;;;;;6202662;23;20766;-81
2021/01/17 17:48:58;;;;;;;15.43;13.90;;;6.40;71.20;;;;;;6241117;23;20506;-82
2021/01/17 17:51:30;;;;;;;15.47;13.63;;;6.40;71.20;;;;;;6240422;23;20797;-80
2021/01/17 17:53:57;;;;;;;15.17;11.60;;;6.40;71.30;;;;;;6242268;23;20818;-81
2021/01/17 17:56:24;;;;;;;15.03;12.73;;;6.40;71.30;;;;;;6242361;23;20426;-80
2021/01/17 17:58:55;;;;;;;13.27;11.90;;;6.40;71.30;;;;;;6241971;23;20940;-80
2021/01/17 18:01:22;;;;;;;13.00;11.07;;;6.40;71.40;;;;;;6242409;23;20447;-79
2021/01/17 18:03:48;;;;;;;12.30;11.00;;;6.40;71.40;;;;;;6242246;23;20430;-80
2021/01/17 18:06:15;;;;;;;18.13;13.23;;;6.40;71.40;;;;;;6240656;22;20478;-80
2021/01/17 18:08:42;;;;;;;14.40;12.30;;;6.40;71.40;;;;;;6242125;23;20511;-81
2021/01/17 18:13:56;;;;;;;15.90;11.07;;;6.40;71.40;;;;;;6242962;22;20875;-81
2021/01/17 18:16:23;;;;;;;14.63;10.80;;;6.40;71.40;;;;;;6242225;23;20424;-80
2021/01/17 18:18:50;;;;;;;10.93;9.43;;;6.40;71.40;;;;;;6239871;23;20490;-80
2021/01/17 18:21:17;;;;;;;10.73;9.07;;;6.40;71.40;;;;;;6241818;22;20988;-81
2021/01/17 18:23:43;;;;;;;13.63;9.73;;;6.40;71.50;;;;;;6242593;22;20416;-80
2021/01/17 18:26:11;;;;;;;9.73;8.73;;;6.40;71.70;;;;;;6242195;22;20473;-80
2021/01/17 18:28:38;;;;;;;10.53;9.27;;;6.40;71.60;;;;;;6242141;22;20743;-79
2021/01/17 18:31:06;;;;;;;9.87;8.83;;;6.40;71.50;;;;;;6245004;22;20450;-81
2021/01/17 18:33:51;;;;;;;9.57;8.60;;;6.40;71.50;;;;;;6245775;22;20419;-81
2021/01/17 18:36:20;;;;;;;10.87;8.90;;;6.40;71.70;;;;;;6242776;22;20424;-78
2021/01/17 18:38:48;;;;;;;8.90;8.07;;;6.40;71.50;;;;;;6243355;22;20466;-78
2021/01/17 18:41:15;;;;;;;9.53;7.20;;;6.40;71.60;;;;;;6242097;22;20440;-77
2021/01/17 18:43:45;;;;;;;7.67;6.87;;;6.40;71.60;;;;;;6245882;22;20408;-77
2021/01/17 18:46:14;;;;;;;12.10;7.80;;;6.40;71.70;;;;;;6240626;22;20486;-77
2021/01/17 18:48:48;;;;;;;7.53;6.90;;;6.50;71.70;;;;;;6245775;22;20490;-77
2021/01/17 18:51:17;;;;;;;9.10;8.20;;;6.50;71.80;;;;;;6241604;22;20415;-78
2021/01/17 18:53:44;;;;;;;9.50;6.57;;;6.60;71.80;;;;;;6242576;23;20914;-77
2021/01/17 18:56:14;;;;;;;8.47;7.50;;;6.50;71.80;;;;;;6244444;22;20463;-77
2021/01/17 18:58:41;;;;;;;7.80;7.10;;;6.60;71.90;;;;;;6245350;22;20440;-78
2021/01/17 19:01:10;;;;;;;10.40;8.30;;;6.50;71.60;;;;;;6245376;22;20409;-80
2021/01/17 19:03:40;;;;;;;8.63;7.80;;;6.50;71.80;;;;;;6245408;22;20452;-78
2021/01/17 19:06:07;;;;;;;8.97;8.17;;;6.60;71.80;;;;;;6245269;22;20423;-78
2021/01/17 19:08:34;;;;;;;12.73;10.43;;;6.60;71.60;;;;;;6246013;23;20427;-80
2021/01/17 19:11:01;;;;;;;27.47;17.67;;;6.50;71.50;;;;;;6244333;22;20423;-81
2021/01/17 19:13:32;;;;;;;30.80;21.57;;;6.60;71.70;;;;;;6244668;23;20857;-81
2021/01/17 19:15:59;;;;;;;15.83;11.50;;;6.60;71.70;;;;;;6244937;22;20412;-80
2021/01/17 19:18:31;;;;;;;11.03;8.97;;;6.60;71.70;;;;;;6244877;23;20415;-81
2021/01/17 19:20:58;;;;;;;9.10;7.27;;;6.60;71.80;;;;;;6245306;22;20427;-79
2021/01/17 19:23:27;;;;;;;15.33;10.67;;;6.60;71.90;;;;;;6245486;22;20456;-79
2021/01/17 19:25:53;;;;;;;15.37;12.40;;;6.60;71.80;;;;;;6245569;23;20454;-78
2021/01/17 19:28:20;;;;;;;12.30;10.90;;;6.60;71.80;;;;;;6245140;23;20423;-78
2021/01/17 19:30:54;;;;;;;9.00;8.10;;;6.60;71.80;;;;;;6245509;23;20412;-81
2021/01/17 19:33:21;;;;;;;11.60;7.90;;;6.60;71.80;;;;;;6245167;23;20423;-78
2021/01/17 19:35:49;;;;;;;7.90;6.30;;;6.60;71.90;;;;;;6245899;22;20519;-79
2021/01/17 19:38:17;;;;;;;9.00;7.10;;;6.60;71.70;;;;;;6243153;22;20430;-81
2021/01/17 19:40:46;;;;;;;7.83;6.70;;;6.60;71.70;;;;;;6245132;22;20418;-81
2021/01/17 19:43:13;;;;;;;7.20;5.63;;;6.60;71.70;;;;;;6244773;22;20544;-81
2021/01/17 19:45:39;;;;;;;6.03;5.43;;;6.60;71.70;;;;;;6245355;22;20427;-80
2021/01/17 19:48:07;;;;;;;8.93;6.13;;;6.60;71.70;;;;;;6245104;22;20449;-80
2021/01/17 19:50:33;;;;;;;7.30;6.60;;;6.60;71.90;;;;;;6244837;22;20502;-80
2021/01/17 19:53:00;;;;;;;6.07;5.47;;;6.60;71.80;;;;;;6245155;22;20450;-81
2021/01/17 19:55:28;;;;;;;5.67;4.80;;;6.60;71.90;;;;;;6244857;22;20427;-82
2021/01/17 19:57:55;;;;;;;5.40;4.90;;;6.60;71.90;;;;;;6244945;22;20466;-81
2021/01/17 20:00:23;;;;;;;5.63;5.13;;;6.60;71.90;;;;;;6245355;22;20431;-81
2021/01/17 20:05:31;;;;;;;6.00;5.17;;;6.60;71.90;;;;;;6242862;22;20404;-80
2021/01/17 20:07:57;;;;;;;5.33;4.83;;;6.60;71.80;;;;;;6244889;22;20909;-78
2021/01/17 20:10:28;;;;;;;5.17;4.73;;;6.60;71.80;;;;;;6245504;22;20444;-78
2021/01/17 20:12:59;;;;;;;5.37;4.90;;;6.60;71.80;;;;;;6245205;22;20404;-79
2021/01/17 20:15:26;;;;;;;5.23;4.73;;;6.60;71.90;;;;;;6244689;22;20424;-80
2021/01/17 20:17:54;;;;;;;4.93;4.40;;;6.60;71.80;;;;;;6244658;22;20419;-80
2021/01/17 20:20:20;;;;;;;5.77;5.23;;;6.60;71.80;;;;;;6244834;22;20457;-81
2021/01/17 20:22:50;;;;;;;4.97;4.57;;;6.60;71.70;;;;;;6245489;22;20451;-80
2021/01/17 20:25:17;;;;;;;5.43;4.93;;;6.60;71.70;;;;;;6244934;22;20515;-80
2021/01/17 20:27:45;;;;;;;5.13;4.67;;;6.60;71.80;;;;;;6245072;22;20474;-79
2021/01/17 20:30:14;;;;;;;4.83;4.43;;;6.60;71.90;;;;;;6244581;22;20406;-79
2021/01/17 20:32:51;;;;;;;5.70;4.50;;;6.60;71.90;;;;;;6242880;22;20450;-80
2021/01/17 20:35:19;;;;;;;7.37;4.03;;;6.60;72.10;;;;;;6243943;22;20994;-82
2021/01/17 20:37:54;;;;;;;5.97;4.43;;;6.60;72.00;;;;;;6241509;22;20426;-80
2021/01/17 20:40:24;;;;;;;4.13;3.83;;;6.60;72.10;;;;;;6243914;22;20475;-81
2021/01/17 20:42:51;;;;;;;4.53;4.20;;;6.60;72.00;;;;;;6244670;22;20498;-81
2021/01/17 20:45:21;;;;;;;6.87;4.20;;;6.60;72.00;;;;;;6247698;22;20420;-80
2021/01/17 20:47:48;;;;;;;6.57;4.13;;;6.60;72.00;;;;;;6246973;22;20444;-79
2021/01/17 20:50:14;;;;;;;4.30;3.70;;;6.60;71.60;;;;;;6247115;22;20408;-79
2021/01/17 20:52:41;;;;;;;5.33;4.40;;;6.60;71.90;;;;;;6246902;22;20392;-80
2021/01/17 20:55:15;;;;;;;4.63;4.23;;;6.60;72.00;;;;;;6246982;22;20415;-79
2021/01/17 20:57:42;;;;;;;4.83;3.90;;;6.60;72.10;;;;;;6246552;22;20422;-78
2021/01/17 21:00:11;;;;;;;4.37;4.00;;;6.60;72.20;;;;;;6245612;22;20415;-77
2021/01/17 21:02:38;;;;;;;3.80;3.50;;;6.60;72.20;;;;;;6246317;22;20452;-79
2021/01/17 21:05:06;;;;;;;5.57;4.23;;;6.60;72.20;;;;;;6247257;22;20494;-79
2021/01/17 21:07:35;;;;;;;3.90;3.47;;;6.60;72.10;;;;;;6246617;22;20912;-80
2021/01/17 21:10:06;;;;;;;4.73;4.03;;;6.60;72.00;;;;;;6246377;22;20414;-79
2021/01/17 21:12:32;;;;;;;4.47;3.07;;;6.70;72.20;;;;;;6247345;22;20766;-78
2021/01/17 21:14:59;;;;;;;4.63;4.23;;;6.70;72.10;;;;;;6246722;22;20430;-79
2021/01/17 21:17:27;;;;;;;4.23;3.83;;;6.60;71.90;;;;;;6246780;22;20954;-78
2021/01/17 21:19:55;;;;;;;4.93;4.23;;;6.60;72.10;;;;;;6247086;22;20403;-78
2021/01/17 21:22:22;;;;;;;4.20;3.83;;;6.60;72.10;;;;;;6246604;22;20455;-78
2021/01/17 21:24:49;;;;;;;3.53;3.00;;;6.60;72.20;;;;;;6246588;22;20522;-78
2021/01/17 21:27:15;;;;;;;5.40;3.93;;;6.60;71.90;;;;;;6245016;22;20411;-78
2021/01/17 21:29:42;;;;;;;6.80;4.60;;;6.60;72.10;;;;;;6246518;22;20413;-78
2021/01/17 21:32:09;;;;;;;4.57;4.17;;;6.60;72.20;;;;;;6246849;22;20433;-79
2021/01/17 21:34:36;;;;;;;5.50;4.10;;;6.70;72.20;;;;;;6246312;22;20793;-80
2021/01/17 21:37:03;;;;;;;5.33;4.60;;;6.70;72.10;;;;;;6245978;22;20453;-78
2021/01/17 21:39:30;;;;;;;6.20;5.23;;;6.70;72.20;;;;;;6246609;22;20412;-77
2021/01/17 21:41:56;;;;;;;4.50;4.00;;;6.70;72.10;;;;;;6246707;22;20443;-78
2021/01/17 21:44:23;;;;;;;4.77;4.00;;;6.70;72.10;;;;;;6246884;22;20462;-77
2021/01/17 21:46:50;;;;;;;5.73;3.77;;;6.70;72.20;;;;;;6246368;22;20473;-77
2021/01/17 21:49:16;;;;;;;4.90;3.43;;;6.60;71.90;;;;;;6245801;22;20437;-78
2021/01/17 21:51:46;;;;;;;5.17;3.70;;;6.60;72.10;;;;;;6246489;22;20950;-77
2021/01/17 21:54:13;;;;;;;3.97;3.57;;;6.60;72.40;;;;;;6244086;22;20415;-77
2021/01/17 21:56:40;;;;;;;6.37;3.43;;;6.60;72.50;;;;;;6246981;22;20411;-77
2021/01/17 21:59:09;;;;;;;4.40;3.93;;;6.60;72.50;;;;;;6246648;22;20420;-78
2021/01/17 22:01:41;;;;;;;5.07;4.30;;;6.60;72.50;;;;;;6246110;22;20452;-78
2021/01/17 22:04:10;;;;;;;5.43;4.40;;;6.60;72.50;;;;;;6246067;22;20405;-77
2021/01/17 22:06:36;;;;;;;5.30;4.80;;;6.60;72.50;;;;;;6246281;22;20905;-77
2021/01/17 22:09:08;;;;;;;6.30;4.07;;;6.60;72.60;;;;;;6246768;22;20462;-77
2021/01/17 22:11:35;;;;;;;4.60;4.20;;;6.60;72.60;;;;;;6246826;22;20420;-78
2021/01/17 22:14:05;;;;;;;5.10;4.03;;;6.60;72.60;;;;;;6246441;22;20423;-76
2021/01/17 22:16:32;;;;;;;5.67;4.60;;;6.50;72.50;;;;;;6246594;22;20461;-78
2021/01/17 22:18:59;;;;;;;7.13;4.50;;;6.50;72.40;;;;;;6244361;22;20784;-78
2021/01/17 22:21:40;;;;;;;5.80;4.40;;;6.50;72.70;;;;;;6245750;22;20410;-79
2021/01/17 22:24:12;;;;;;;4.33;3.60;;;6.50;72.80;;;;;;6246387;22;20423;-76
2021/01/17 22:26:46;;;;;;;6.53;3.87;;;6.40;72.60;;;;;;6246209;22;20422;-77
2021/01/17 22:29:15;;;;;;;4.10;3.63;;;6.50;73.00;;;;;;6245966;22;20451;-77
2021/01/17 22:31:44;;;;;;;5.87;5.27;;;6.50;73.00;;;;;;6246231;22;20474;-76
2021/01/17 22:34:12;;;;;;;4.83;4.33;;;6.50;73.00;;;;;;6246219;22;20416;-78
2021/01/17 22:36:40;;;;;;;4.47;4.07;;;6.50;73.00;;;;;;6246618;22;20412;-78
2021/01/17 22:39:06;;;;;;;5.17;4.77;;;6.50;73.00;;;;;;6246302;22;20770;-78
2021/01/17 22:41:33;;;;;;;9.27;4.20;;;6.50;73.10;;;;;;6246388;22;20489;-78
2021/01/17 22:44:01;;;;;;;6.43;4.33;;;6.60;73.00;;;;;;6246516;22;20419;-78
2021/01/17 22:46:27;;;;;;;5.63;4.90;;;6.60;72.80;;;;;;6244298;22;20716;-78
2021/01/17 22:48:54;;;;;;;7.93;6.03;;;6.60;72.70;;;;;;6245531;22;20960;-78
2021/01/17 22:51:27;;;;;;;5.37;4.00;;;6.60;72.90;;;;;;6246178;22;20750;-78
2021/01/17 22:53:53;;;;;;;5.20;4.33;;;6.60;72.80;;;;;;6246195;22;20434;-77
2021/01/17 22:56:21;;;;;;;4.87;4.40;;;6.60;72.50;;;;;;6246045;22;20516;-79
2021/01/17 22:58:49;;;;;;;6.37;4.50;;;6.60;72.70;;;;;;6245780;22;20416;-78
2021/01/17 23:01:18;;;;;;;3.87;3.57;;;6.60;73.00;;;;;;6245724;22;20424;-78
2021/01/17 23:03:45;;;;;;;4.80;4.30;;;6.60;72.90;;;;;;6245764;22;20419;-78
2021/01/17 23:06:16;;;;;;;4.57;4.10;;;6.70;72.90;;;;;;6245482;22;20782;-79
2021/01/17 23:08:44;;;;;;;5.87;4.43;;;6.60;72.60;;;;;;6245721;22;20412;-79
2021/01/17 23:11:12;;;;;;;5.17;4.60;;;6.60;72.50;;;;;;6245804;22;20418;-78
2021/01/17 23:13:39;;;;;;;5.17;4.00;;;6.60;73.20;;;;;;6244180;22;20412;-79
2021/01/17 23:16:07;;;;;;;7.20;3.97;;;6.60;72.60;;;;;;6245367;22;20411;-78
2021/01/17 23:18:35;;;;;;;5.27;3.67;;;6.60;72.70;;;;;;6245974;22;20404;-79
2021/01/17 23:21:04;;;;;;;5.30;3.70;;;6.60;72.50;;;;;;6245383;22;20913;-79
2021/01/17 23:23:31;;;;;;;3.93;3.40;;;6.70;72.70;;;;;;6245537;22;20448;-77
2021/01/17 23:25:57;;;;;;;4.70;3.47;;;6.70;72.80;;;;;;6245850;22;20747;-77
2021/01/17 23:28:25;;;;;;;5.23;4.73;;;6.70;72.90;;;;;;6246213;22;20427;-77
2021/01/17 23:30:51;;;;;;;3.83;3.43;;;6.70;72.70;;;;;;6245416;22;20422;-77
2021/01/17 23:33:18;;;;;;;6.43;4.03;;;6.60;72.60;;;;;;6245674;22;20408;-77
2021/01/17 23:35:51;;;;;;;5.83;4.43;;;6.60;72.60;;;;;;6245414;22;20472;-79
2021/01/17 23:38:18;;;;;;;5.10;4.23;;;6.60;72.50;;;;;;6245616;23;20462;-77
2021/01/17 23:40:45;;;;;;;5.30;4.43;;;6.60;72.50;;;;;;6244371;22;20416;-76
2021/01/17 23:43:12;;;;;;;6.97;5.00;;;6.60;72.60;;;;;;6245479;22;20498;-76
2021/01/17 23:45:39;;;;;;;4.17;3.60;;;6.60;72.60;;;;;;6245192;22;20416;-77
2021/01/17 23:48:06;;;;;;;4.70;4.30;;;6.50;72.60;;;;;;6245567;22;20432;-76
2021/01/17 23:50:33;;;;;;;6.40;4.27;;;6.50;72.60;;;;;;6245008;23;20408;-76
2021/01/17 23:53:00;;;;;;;4.50;4.10;;;6.50;72.60;;;;;;6245133;23;20412;-76
2021/01/17 23:55:27;;;;;;;4.20;3.80;;;6.50;72.70;;;;;;6245206;23;20415;-75
2021/01/17 23:57:53;;;;;;;4.73;3.90;;;6.50;72.90;;;;;;6245590;23;20421;-76
